Time;durP1;ratioP1;P1;durP2;ratioP2;P2;SDS_P1;SDS_P2;PMS_P1;PMS_P2;Temp;Humidity;BMP_temperature;BMP_pressure;BME280_temperature;BME280_humidity;BME280_pressure;Samples;Min_cycle;Max_cycle;Signal;HPM_P1;HPM_P2
2024/01/24 00:00:35;;;;;;;27.50;13.30;;;;;;;2.21;71.81;98063.66;108408;1256;100249;-77
2024/01/24 00:03:23;;;;;;;24.10;12.40;;;;;;;2.16;71.94;98072.07;108384;1256;95603;-77
2024/01/24 00:05:51;;;;;;;25.50;11.20;;;;;;;2.11;72.03;98070.55;108418;1256;96057;-77
2024/01/24 00:08:18;;;;;;;28.80;13.50;;;;;;;2.06;72.02;98064.14;108404;1256;103563;-77
2024/01/24 00:10:46;;;;;;;38.60;15.80;;;;;;;2.02;71.99;98059.36;108450;1256;101708;-77
2024/01/24 00:13:14;;;;;;;33.30;15.90;;;;;;;2.00;72.04;98053.20;108421;1256;99826;-77
2024/01/24 00:15:42;;;;;;;34.00;16.40;;;;;;;1.97;72.04;98050.91;108320;1256;95690;-77
2024/01/24 00:18:09;;;;;;;31.50;15.60;;;;;;;1.93;72.12;98049.75;108457;1256;96148;-77
2024/01/24 00:20:37;;;;;;;39.10;18.10;;;;;;;1.88;72.05;98041.88;108420;1256;104024;-77
2024/01/24 00:23:05;;;;;;;37.90;17.10;;;;;;;1.86;72.04;98045.80;108444;1256;99007;-77
2024/01/24 00:25:32;;;;;;;43.10;18.50;;;;;;;1.84;72.09;98048.33;108421;1256;98864;-77
2024/01/24 00:28:00;;;;;;;35.20;16.30;;;;;;;1.80;72.11;98039.00;108406;1256;97095;-77
2024/01/24 00:30:28;;;;;;;35.10;16.80;;;;;;;1.77;72.04;98027.94;108446;1256;95900;-77
2024/01/24 00:32:55;;;;;;;33.70;15.60;;;;;;;1.74;72.03;98026.64;108444;1256;102675;-77
2024/01/24 00:35:23;;;;;;;29.40;13.80;;;;;;;1.70;72.02;98027.34;108363;1257;101154;-77
2024/01/24 00:37:51;;;;;;;27.10;12.20;;;;;;;1.67;72.10;98027.08;108408;1256;99018;-77
2024/01/24 00:40:18;;;;;;;24.80;10.90;;;;;;;1.66;72.30;98032.18;108428;1256;95576;-77
2024/01/24 00:42:46;;;;;;;21.10;10.00;;;;;;;1.63;72.32;98032.92;108413;1260;96514;-77
2024/01/24 00:45:14;;;;;;;27.40;11.00;;;;;;;1.65;72.34;98037.38;108405;1256;103616;-77
2024/01/24 00:47:41;;;;;;;27.50;11.60;;;;;;;1.67;72.25;98035.83;108436;1256;101739;-77
2024/01/24 00:50:10;;;;;;;21.70;11.40;;;;;;;1.69;72.22;98026.53;108427;1256;100258;-77
2024/01/24 00:52:37;;;;;;;23.50;12.60;;;;;;;1.70;72.21;98021.11;108358;1257;95547;-77
2024/01/24 00:55:06;;;;;;;22.90;11.70;;;;;;;1.69;72.08;98018.34;108443;1256;96042;-77
2024/01/24 00:57:33;;;;;;;23.40;12.20;;;;;;;1.65;71.92;98007.08;108395;1256;103812;-77
2024/01/24 01:00:01;;;;;;;20.40;11.80;;;;;;;1.57;71.90;98001.55;108393;1256;101595;-77
2024/01/24 01:02:29;;;;;;;24.80;12.50;;;;;;;1.51;71.92;98007.80;108400;1256;99230;-77
2024/01/24 01:04:57;;;;;;;24.60;12.20;;;;;;;1.48;72.00;98000.34;108431;1256;95601;-77
2024/01/24 01:07:24;;;;;;;23.20;11.90;;;;;;;1.41;71.84;97997.80;108423;1256;96042;-77
2024/01/24 01:09:52;;;;;;;19.50;10.80;;;;;;;1.34;71.83;97993.29;108446;1256;102456;-77
2024/01/24 01:12:20;;;;;;;20.10;10.80;;;;;;;1.28;71.84;97990.60;108406;1256;100378;-77
2024/01/24 01:14:48;;;;;;;24.80;12.60;;;;;;;1.20;71.81;97984.25;108396;1256;100122;-77
2024/01/24 01:17:16;;;;;;;23.70;12.00;;;;;;;1.10;71.86;97976.45;108398;1256;95549;-77
2024/01/24 01:19:43;;;;;;;22.90;10.80;;;;;;;1.03;72.03;97981.88;108448;1256;96100;-77
2024/01/24 01:22:11;;;;;;;20.60;10.80;;;;;;;1.00;72.12;97975.98;108420;1256;103876;-77
2024/01/24 01:24:38;;;;;;;25.10;10.30;;;;;;;0.98;72.21;97979.61;108438;1256;101693;-77
2024/01/24 01:27:08;;;;;;;23.90;9.90;;;;;;;0.97;72.23;97983.63;108351;1256;99021;-77
2024/01/24 01:29:35;;;;;;;20.50;9.80;;;;;;;0.93;72.21;97985.30;108410;1256;95789;-77
2024/01/24 01:32:03;;;;;;;25.40;12.00;;;;;;;0.87;72.27;97988.10;108449;1258;96013;-77
2024/01/24 01:34:31;;;;;;;24.20;10.80;;;;;;;0.82;72.32;97985.23;108422;1256;102274;-77
2024/01/24 01:36:59;;;;;;;22.20;10.40;;;;;;;0.74;72.46;97974.04;108379;1256;101381;-77
2024/01/24 01:39:28;;;;;;;39.90;16.90;;;;;;;0.70;72.55;97976.36;108391;1256;100224;-77
2024/01/24 01:41:56;;;;;;;40.20;15.70;;;;;;;0.65;72.56;97959.08;108389;1256;95579;-77
2024/01/24 01:44:23;;;;;;;32.90;12.90;;;;;;;0.59;72.64;97946.00;108431;1256;96263;-77
2024/01/24 01:46:51;;;;;;;24.20;11.30;;;;;;;0.55;72.60;97946.71;108414;1256;103540;-77
2024/01/24 01:49:21;;;;;;;24.00;10.70;;;;;;;0.54;72.68;97943.11;108490;1256;99989;-77
2024/01/24 01:51:52;;;;;;;24.90;11.30;;;;;;;0.51;72.89;97932.05;108392;1256;100150;-77
2024/01/24 01:54:19;;;;;;;19.60;9.20;;;;;;;0.46;72.92;97931.24;108361;1258;95611;-77
2024/01/24 01:56:47;;;;;;;27.40;10.50;;;;;;;0.47;73.02;97930.60;108446;1256;96024;-77
2024/01/24 01:59:15;;;;;;;27.00;11.10;;;;;;;0.51;72.94;97933.26;108310;1256;139470;-77
2024/01/24 02:01:46;;;;;;;22.00;9.00;;;;;;;0.51;72.89;97933.39;108421;1256;101318;-77
2024/01/24 02:04:14;;;;;;;26.00;8.60;;;;;;;0.54;73.04;97921.11;108419;1256;100110;-77
2024/01/24 02:06:42;;;;;;;19.30;8.70;;;;;;;0.59;72.95;97911.28;108398;1256;95559;-77
2024/01/24 02:09:11;;;;;;;23.70;9.10;;;;;;;0.59;72.86;97905.13;108354;1257;95953;-76
2024/01/24 02:11:42;;;;;;;15.90;5.80;;;;;;;0.57;72.93;97897.09;108447;1256;103706;-76
2024/01/24 02:14:11;;;;;;;17.10;7.00;;;;;;;0.64;72.93;97883.39;108449;1256;101751;-76
2024/01/24 02:16:38;;;;;;;17.30;6.50;;;;;;;0.71;72.89;97881.31;108436;1256;100184;-76
2024/01/24 02:19:06;;;;;;;21.50;10.40;;;;;;;0.76;72.78;97873.28;108361;1256;96018;-76
2024/01/24 02:21:34;;;;;;;18.00;9.20;;;;;;;0.75;72.61;97863.90;108409;1256;96130;-76
2024/01/24 02:24:03;;;;;;;24.30;12.20;;;;;;;0.73;72.47;97855.45;108411;1256;103770;-76
2024/01/24 02:26:30;;;;;;;31.90;16.60;;;;;;;0.69;72.38;97850.49;108462;1256;101613;-77
2024/01/24 02:28:58;;;;;;;28.70;14.10;;;;;;;0.67;72.28;97841.17;108412;1256;98873;-76
2024/01/24 02:31:26;;;;;;;23.60;11.40;;;;;;;0.64;72.25;97836.60;108420;1256;95572;-76
2024/01/24 02:33:53;;;;;;;30.00;13.80;;;;;;;0.60;72.20;97830.80;108375;1256;97091;-77
2024/01/24 02:36:21;;;;;;;32.40;15.80;;;;;;;0.58;72.23;97826.21;108471;1256;102296;-77
2024/01/24 02:38:49;;;;;;;33.60;14.00;;;;;;;0.61;72.31;97820.41;108399;1256;101664;-77
2024/01/24 02:41:19;;;;;;;13.90;6.50;;;;;;;0.66;72.37;97814.48;108418;1256;99976;-77
2024/01/24 02:43:46;;;;;;;16.70;5.40;;;;;;;0.71;72.29;97808.11;108389;1256;95502;-76
2024/01/24 02:46:14;;;;;;;13.20;6.20;;;;;;;0.80;72.28;97800.98;108489;1256;95991;-76
2024/01/24 02:48:42;;;;;;;12.50;5.00;;;;;;;0.85;72.15;97797.80;108444;1256;103703;-77
2024/01/24 02:51:09;;;;;;;10.70;5.10;;;;;;;0.90;72.04;97797.38;108483;1256;100386;-76
2024/01/24 02:53:37;;;;;;;11.60;4.70;;;;;;;0.93;71.97;97794.40;108388;1256;100065;-77
2024/01/24 02:56:05;;;;;;;12.50;4.90;;;;;;;0.96;71.83;97786.16;108399;1256;96061;-77
2024/01/24 02:58:32;;;;;;;18.80;7.80;;;;;;;1.01;71.78;97776.83;108389;1256;96018;-76
2024/01/24 03:01:00;;;;;;;16.80;6.50;;;;;;;1.01;71.64;97765.13;108411;1256;102059;-77
2024/01/24 03:03:28;;;;;;;15.30;5.00;;;;;;;1.03;71.50;97755.77;108435;1257;101412;-77
2024/01/24 03:05:56;;;;;;;13.70;4.30;;;;;;;1.06;71.42;97747.09;108356;1256;98986;-77
2024/01/24 03:08:23;;;;;;;11.70;5.20;;;;;;;1.06;71.22;97745.20;108412;1256;95578;-77
2024/01/24 03:10:51;;;;;;;16.40;5.00;;;;;;;1.08;71.20;97737.33;108434;1256;96018;-77
2024/01/24 03:13:19;;;;;;;14.90;5.00;;;;;;;1.13;71.11;97725.39;108382;1257;103677;-76
2024/01/24 03:15:47;;;;;;;16.40;5.10;;;;;;;1.14;71.06;97719.13;108400;1257;101843;-77
2024/01/24 03:18:14;;;;;;;12.00;4.90;;;;;;;1.13;70.97;97716.88;108345;1256;99301;-76
2024/01/24 03:20:42;;;;;;;13.00;4.60;;;;;;;1.11;70.83;97705.02;108399;1256;95550;-77
2024/01/24 03:23:10;;;;;;;10.70;4.30;;;;;;;1.12;70.80;97693.01;108460;1256;96038;-76
2024/01/24 03:25:37;;;;;;;16.70;5.60;;;;;;;1.16;70.73;97686.80;108440;1256;103792;-77
2024/01/24 03:28:05;;;;;;;10.50;5.30;;;;;;;1.17;70.72;97677.16;108374;1258;100256;-76
2024/01/24 03:30:33;;;;;;;12.30;4.40;;;;;;;1.17;70.62;97670.27;108393;1256;100014;-77
2024/01/24 03:33:02;;;;;;;10.30;4.30;;;;;;;1.19;70.58;97662.13;108349;1257;95665;-77
2024/01/24 03:35:30;;;;;;;12.10;4.30;;;;;;;1.23;70.41;97652.86;108424;1256;96060;-77
2024/01/24 03:37:58;;;;;;;9.00;3.70;;;;;;;1.22;70.19;97650.55;108339;1256;102190;-77
2024/01/24 03:40:25;;;;;;;12.50;4.20;;;;;;;1.25;70.22;97642.55;108445;1256;100372;-76
2024/01/24 03:42:53;;;;;;;12.00;3.80;;;;;;;1.29;70.13;97634.73;108411;1256;100074;-76
2024/01/24 03:45:21;;;;;;;9.10;3.90;;;;;;;1.28;70.08;97631.03;108444;1256;95591;-76
2024/01/24 03:47:50;;;;;;;14.50;3.90;;;;;;;1.29;69.93;97625.43;108405;1259;96032;-76
2024/01/24 03:50:18;;;;;;;15.30;4.20;;;;;;;1.30;69.91;97631.90;108455;1256;102154;-77
2024/01/24 03:52:45;;;;;;;10.40;4.30;;;;;;;1.32;69.93;97633.84;108444;1256;101268;-77
2024/01/24 03:55:13;;;;;;;10.70;3.80;;;;;;;1.34;69.82;97635.58;108363;1260;99371;-77
2024/01/24 03:57:41;;;;;;;8.80;3.30;;;;;;;1.38;69.48;97633.30;108351;1256;95577;-77
2024/01/24 04:00:11;;;;;;;11.90;3.80;;;;;;;1.43;69.50;97634.61;108456;1256;95552;-77
2024/01/24 04:02:40;;;;;;;10.50;3.50;;;;;;;1.47;69.62;97627.95;108377;1256;103836;-77
2024/01/24 04:05:09;;;;;;;8.20;3.50;;;;;;;1.48;69.53;97628.16;108423;1256;101448;-77
2024/01/24 04:07:36;;;;;;;12.40;3.80;;;;;;;1.48;69.38;97626.98;108381;1260;100184;-77
2024/01/24 04:10:05;;;;;;;13.50;3.50;;;;;;;1.50;69.34;97618.84;108425;1256;95660;-77
2024/01/24 04:12:32;;;;;;;9.30;3.40;;;;;;;1.52;69.33;97611.89;108467;1256;95935;-77
2024/01/24 04:15:00;;;;;;;10.20;3.50;;;;;;;1.56;69.26;97599.41;108482;1256;103538;-77
2024/01/24 04:17:28;;;;;;;12.70;4.20;;;;;;;1.60;69.17;97587.28;108435;1256;100478;-77
2024/01/24 04:19:55;;;;;;;11.50;3.90;;;;;;;1.64;68.97;97582.64;108440;1256;100297;-77
2024/01/24 04:22:23;;;;;;;8.70;3.30;;;;;;;1.68;68.83;97580.65;108420;1256;95554;-77
2024/01/24 04:24:51;;;;;;;9.20;3.40;;;;;;;1.72;68.59;97573.44;108477;1256;95980;-76
2024/01/24 04:27:19;;;;;;;10.90;3.60;;;;;;;1.77;68.64;97562.45;108468;1256;103554;-77
2024/01/24 04:29:46;;;;;;;10.10;3.70;;;;;;;1.82;68.49;97552.63;108455;1256;101949;-77
2024/01/24 04:32:14;;;;;;;14.30;4.00;;;;;;;1.85;68.45;97560.31;108438;1257;100215;-77
2024/01/24 04:34:42;;;;;;;11.80;4.00;;;;;;;1.89;68.43;97566.17;108414;1256;95664;-77
2024/01/24 04:37:10;;;;;;;10.50;3.50;;;;;;;1.94;68.30;97556.60;108470;1256;95628;-76
2024/01/24 04:39:38;;;;;;;6.70;3.00;;;;;;;2.00;68.36;97546.37;108468;1256;103902;-76
2024/01/24 04:42:05;;;;;;;9.10;3.20;;;;;;;2.03;68.23;97537.69;108456;1259;100353;-77
2024/01/24 04:44:33;;;;;;;13.70;4.90;;;;;;;2.06;68.26;97529.59;108407;1256;100289;-77
2024/01/24 04:47:01;;;;;;;12.10;3.70;;;;;;;2.07;68.31;97528.46;108422;1256;95631;-77
2024/01/24 04:49:28;;;;;;;9.30;3.20;;;;;;;2.07;68.14;97526.45;108343;1256;95987;-77
2024/01/24 04:51:56;;;;;;;12.30;3.60;;;;;;;2.09;68.09;97525.63;108436;1256;103379;-77
2024/01/24 04:54:24;;;;;;;14.60;3.50;;;;;;;2.12;68.06;97515.87;108466;1256;101189;-77
2024/01/24 04:56:51;;;;;;;17.20;3.70;;;;;;;2.18;68.08;97511.02;108465;1256;100174;-77
2024/01/24 04:59:19;;;;;;;13.60;5.10;;;;;;;2.23;67.97;97504.13;108399;1256;95788;-77
2024/01/24 05:01:47;;;;;;;16.10;4.30;;;;;;;2.25;67.91;97506.87;108479;1256;95985;-77
2024/01/24 05:04:15;;;;;;;10.20;3.90;;;;;;;2.28;67.87;97503.90;108418;1256;102188;-77
2024/01/24 05:06:43;;;;;;;11.90;4.00;;;;;;;2.31;67.86;97501.64;108440;1256;101554;-77
2024/01/24 05:09:10;;;;;;;10.30;4.40;;;;;;;2.34;67.80;97494.06;108446;1256;100122;-77
2024/01/24 05:11:42;;;;;;;14.40;4.50;;;;;;;2.35;67.64;97492.11;108391;1256;95649;-77
2024/01/24 05:14:09;;;;;;;12.40;4.40;;;;;;;2.38;67.58;97499.52;108447;1256;96059;-77
2024/01/24 05:16:41;;;;;;;14.60;4.70;;;;;;;2.39;67.34;97495.61;108427;1256;103886;-78
2024/01/24 05:19:09;;;;;;;12.00;5.00;;;;;;;2.42;67.66;97498.90;108458;1256;100062;-77
2024/01/24 05:21:42;;;;;;;12.80;4.70;;;;;;;2.43;67.66;97493.58;108391;1256;100043;-77
2024/01/24 05:24:12;;;;;;;14.40;6.20;;;;;;;2.44;67.52;97489.92;108415;1256;95634;-77
2024/01/24 05:26:42;;;;;;;13.50;5.50;;;;;;;2.46;67.57;97483.02;108441;1256;96050;-77
2024/01/24 05:29:10;;;;;;;16.00;5.30;;;;;;;2.49;67.48;97478.61;108476;1256;103874;-77
2024/01/24 05:31:38;;;;;;;15.00;5.10;;;;;;;2.53;67.46;97477.33;108444;1256;101302;-77
2024/01/24 05:34:06;;;;;;;14.10;4.90;;;;;;;2.57;67.36;97466.64;108432;1256;100174;-77
2024/01/24 05:36:34;;;;;;;13.10;4.70;;;;;;;2.60;67.26;97459.25;108424;1260;95584;-77
2024/01/24 05:39:01;;;;;;;12.60;4.70;;;;;;;2.62;67.16;97460.80;108443;1259;96032;-77
2024/01/24 05:41:29;;;;;;;13.20;4.70;;;;;;;2.65;67.26;97456.39;108451;1256;103456;-77
2024/01/24 05:43:57;;;;;;;13.80;5.00;;;;;;;2.69;67.41;97456.82;108442;1256;101477;-77
2024/01/24 05:46:24;;;;;;;16.40;4.90;;;;;;;2.71;67.45;97450.10;108417;1256;100115;-77
2024/01/24 05:48:52;;;;;;;13.70;4.60;;;;;;;2.72;67.54;97444.61;108456;1256;95648;-77
2024/01/24 05:51:20;;;;;;;15.10;4.80;;;;;;;2.75;67.57;97442.86;108445;1256;96034;-77
2024/01/24 05:53:48;;;;;;;14.10;4.20;;;;;;;2.78;67.59;97437.56;108453;1256;102722;-77
2024/01/24 05:56:16;;;;;;;10.90;3.60;;;;;;;2.82;67.61;97437.67;108483;1256;101655;-78
2024/01/24 05:58:43;;;;;;;12.30;4.10;;;;;;;2.85;67.59;97434.64;108401;1256;100101;-77
2024/01/24 06:01:11;;;;;;;12.00;4.70;;;;;;;2.88;67.80;97422.41;108447;1256;95569;-77
2024/01/24 06:03:41;;;;;;;15.60;4.70;;;;;;;2.91;67.87;97418.90;108427;1256;96040;-77
2024/01/24 06:06:08;;;;;;;12.50;4.30;;;;;;;2.94;67.91;97416.31;108440;1257;103816;-77
2024/01/24 06:08:37;;;;;;;16.10;5.10;;;;;;;2.97;67.70;97412.39;108376;1256;101524;-77
2024/01/24 06:11:05;;;;;;;12.60;4.20;;;;;;;3.02;67.81;97398.77;108433;1256;99971;-76
2024/01/24 06:13:33;;;;;;;14.70;4.80;;;;;;;3.04;67.71;97392.23;108365;1256;95883;-77
2024/01/24 06:16:01;;;;;;;13.40;4.50;;;;;;;3.09;67.79;97388.35;108495;1256;96069;-77
2024/01/24 06:18:29;;;;;;;9.50;4.20;;;;;;;3.13;67.77;97375.64;108468;1256;103552;-76
2024/01/24 06:20:56;;;;;;;13.70;4.80;;;;;;;3.18;67.95;97367.61;108458;1256;101509;-77
2024/01/24 06:23:24;;;;;;;13.70;5.10;;;;;;;3.25;67.92;97360.35;108425;1256;100214;-77
2024/01/24 06:25:52;;;;;;;9.20;3.60;;;;;;;3.31;67.98;97360.04;108427;1256;95551;-77
2024/01/24 06:28:19;;;;;;;14.80;4.30;;;;;;;3.35;67.90;97355.69;108471;1256;96033;-76
2024/01/24 06:30:48;;;;;;;10.20;3.90;;;;;;;3.41;67.91;97349.90;108441;1256;103135;-76
2024/01/24 06:33:15;;;;;;;9.50;3.70;;;;;;;3.45;68.05;97348.04;108449;1257;108561;-77
2024/01/24 06:35:43;;;;;;;8.00;3.50;;;;;;;3.46;68.08;97341.80;108404;1256;100022;-77
2024/01/24 06:38:11;;;;;;;16.20;4.10;;;;;;;3.48;68.14;97336.40;108407;1256;95707;-77
2024/01/24 06:40:39;;;;;;;16.80;5.50;;;;;;;3.51;68.19;97329.86;108458;1256;95977;-77
2024/01/24 06:43:07;;;;;;;10.40;3.40;;;;;;;3.54;68.29;97321.70;108476;1256;103756;-77
2024/01/24 06:45:34;;;;;;;13.10;3.80;;;;;;;3.55;68.38;97315.33;108494;1256;100582;-77
2024/01/24 06:48:02;;;;;;;11.30;4.00;;;;;;;3.57;68.35;97306.29;108419;1256;99935;-77
2024/01/24 06:50:31;;;;;;;9.90;3.00;;;;;;;3.59;68.46;97296.05;108339;1256;95568;-77
2024/01/24 06:52:59;;;;;;;11.90;3.70;;;;;;;3.62;68.46;97292.36;108436;1257;95979;-77
2024/01/24 06:55:26;;;;;;;12.10;4.20;;;;;;;3.64;68.53;97285.95;108408;1256;103874;-77
2024/01/24 06:57:54;;;;;;;19.20;4.70;;;;;;;3.66;68.60;97276.27;108422;1256;101234;-77
2024/01/24 07:00:23;;;;;;;10.90;3.80;;;;;;;3.69;68.61;97259.05;108405;1256;99981;-77
2024/01/24 07:02:51;;;;;;;10.20;3.50;;;;;;;3.70;68.67;97253.23;108401;1256;95646;-77
2024/01/24 07:05:18;;;;;;;9.00;3.40;;;;;;;3.70;68.87;97246.23;108498;1256;95582;-77
2024/01/24 07:07:47;;;;;;;9.20;3.70;;;;;;;3.70;69.03;97229.48;108423;1256;103550;-77
2024/01/24 07:10:15;;;;;;;12.50;3.20;;;;;;;3.70;69.20;97234.29;108455;1256;101771;-77
2024/01/24 07:12:45;;;;;;;7.30;3.00;;;;;;;3.69;69.38;97246.06;108431;1256;99635;-77
2024/01/24 07:15:14;;;;;;;8.40;2.80;;;;;;;3.67;69.65;97248.66;108389;1256;95658;-77
2024/01/24 07:17:42;;;;;;;4.50;2.20;;;;;;;3.63;69.74;97243.30;108445;1256;96064;-78
2024/01/24 07:20:10;;;;;;;6.60;3.00;;;;;;;3.61;70.12;97242.30;108468;1256;102558;-77
2024/01/24 07:22:38;;;;;;;7.60;3.00;;;;;;;3.60;70.57;97249.50;108463;1256;101638;-77
2024/01/24 07:25:07;;;;;;;8.90;3.10;;;;;;;3.60;70.46;97255.21;108456;1256;99967;-77
2024/01/24 07:27:35;;;;;;;10.10;3.70;;;;;;;3.62;70.60;97257.22;108409;1256;95743;-78
2024/01/24 07:30:04;;;;;;;7.10;3.40;;;;;;;3.64;70.88;97247.44;108454;1256;95986;-78
2024/01/24 07:32:32;;;;;;;11.20;3.10;;;;;;;3.64;71.06;97243.36;108438;1256;103528;-78
2024/01/24 07:35:01;;;;;;;7.30;2.90;;;;;;;3.65;71.24;97241.49;108436;1256;101678;-78
2024/01/24 07:37:29;;;;;;;4.90;2.10;;;;;;;3.66;71.21;97246.02;108396;1261;100096;-78
2024/01/24 07:40:14;;;;;;;5.50;2.10;;;;;;;3.66;71.79;97259.88;108359;1256;95656;-78
2024/01/24 07:42:42;;;;;;;5.40;1.90;;;;;;;3.67;72.01;97253.84;108448;1256;96273;-77
2024/01/24 07:45:10;;;;;;;6.50;1.90;;;;;;;3.71;71.71;97245.73;108435;1256;103833;-77
2024/01/24 07:47:38;;;;;;;3.80;1.90;;;;;;;3.76;71.66;97236.48;108435;1256;101395;-77
2024/01/24 07:50:06;;;;;;;6.20;2.70;;;;;;;3.79;71.56;97240.02;108423;1256;100042;-77
2024/01/24 07:52:34;;;;;;;5.80;2.70;;;;;;;3.86;71.83;97236.00;108446;1256;95939;-77
2024/01/24 07:55:01;;;;;;;6.00;2.90;;;;;;;3.95;71.91;97227.93;108421;1257;96338;-78
2024/01/24 07:57:29;;;;;;;5.10;2.40;;;;;;;3.97;71.52;97219.08;108414;1256;103852;-78
2024/01/24 07:59:57;;;;;;;3.60;2.00;;;;;;;3.98;71.33;97227.50;108457;1256;100412;-77
2024/01/24 08:02:24;;;;;;;4.50;2.20;;;;;;;3.99;71.26;97223.65;108388;1256;99989;-77
2024/01/24 08:04:52;;;;;;;5.60;2.20;;;;;;;4.02;71.21;97229.48;108382;1256;95580;-78
2024/01/24 08:07:20;;;;;;;4.60;2.30;;;;;;;4.03;71.24;97238.23;108348;1256;95942;-77
2024/01/24 08:09:47;;;;;;;3.80;2.10;;;;;;;4.04;71.24;97239.04;108457;1257;103766;-79
2024/01/24 08:12:15;;;;;;;4.10;2.20;;;;;;;4.06;71.19;97235.60;108407;1256;101383;-77
2024/01/24 08:14:43;;;;;;;3.80;1.90;;;;;;;4.08;71.11;97223.10;108449;1256;99138;-78
2024/01/24 08:17:11;;;;;;;2.40;1.60;;;;;;;4.08;71.02;97213.98;108398;1256;96529;-78
2024/01/24 08:19:39;;;;;;;3.90;1.90;;;;;;;4.09;70.94;97198.77;108444;1256;97181;-78
2024/01/24 08:22:07;;;;;;;4.50;2.70;;;;;;;4.11;70.92;97188.52;108471;1256;104615;-77
2024/01/24 08:24:35;;;;;;;3.50;2.00;;;;;;;4.15;70.99;97191.29;108451;1256;101340;-77
2024/01/24 08:27:02;;;;;;;2.90;2.00;;;;;;;4.19;71.14;97185.10;108401;1256;100168;-77
2024/01/24 08:29:30;;;;;;;4.40;2.20;;;;;;;4.22;71.02;97181.23;108440;1256;95889;-77
2024/01/24 08:31:58;;;;;;;3.60;1.90;;;;;;;4.25;70.98;97173.39;108447;1256;95999;-78
2024/01/24 08:34:26;;;;;;;3.20;2.00;;;;;;;4.27;70.95;97174.34;108443;1256;103560;-78
2024/01/24 08:36:54;;;;;;;3.70;1.70;;;;;;;4.29;70.79;97170.59;108481;1261;101523;-77
2024/01/24 08:39:21;;;;;;;2.70;1.70;;;;;;;4.31;70.80;97145.73;108427;1256;100090;-77
2024/01/24 08:41:49;;;;;;;5.60;2.50;;;;;;;4.33;70.97;97136.01;108368;1256;95634;-77
2024/01/24 08:44:17;;;;;;;3.00;1.80;;;;;;;4.35;70.98;97136.34;108439;1256;95993;-77
2024/01/24 08:46:45;;;;;;;3.30;1.90;;;;;;;4.37;70.93;97134.89;108417;1256;103780;-77
2024/01/24 08:49:13;;;;;;;2.90;1.30;;;;;;;4.36;71.06;97126.75;108412;1256;102268;-78
2024/01/24 08:51:41;;;;;;;2.40;1.50;;;;;;;4.35;71.17;97129.59;108433;1256;99932;-78
2024/01/24 08:54:09;;;;;;;6.70;2.40;;;;;;;4.36;71.27;97137.14;108372;1256;95648;-77
2024/01/24 08:56:37;;;;;;;2.40;1.60;;;;;;;4.37;71.52;97136.36;108460;1256;96023;-78
2024/01/24 08:59:06;;;;;;;1.60;1.10;;;;;;;4.35;71.58;97137.62;108435;1261;102220;-77
2024/01/24 09:01:33;;;;;;;1.90;1.20;;;;;;;4.34;71.57;97135.11;108446;1256;101672;-77
2024/01/24 09:04:01;;;;;;;1.50;1.20;;;;;;;4.35;71.74;97127.63;108429;1256;99765;-77
2024/01/24 09:06:29;;;;;;;2.20;1.40;;;;;;;4.34;72.01;97126.10;108392;1257;95530;-77
2024/01/24 09:08:56;;;;;;;2.20;1.50;;;;;;;4.32;72.13;97114.80;108429;1257;96041;-77
2024/01/24 09:11:24;;;;;;;5.10;2.40;;;;;;;4.31;72.28;97104.79;108474;1256;103703;-77
2024/01/24 09:13:52;;;;;;;9.10;4.30;;;;;;;4.32;72.38;97098.11;108418;1257;101390;-77
2024/01/24 09:16:19;;;;;;;4.50;2.40;;;;;;;4.36;72.51;97099.59;108422;1257;99009;-79
2024/01/24 09:18:47;;;;;;;3.80;2.00;;;;;;;4.34;72.50;97089.27;108390;1256;95573;-78
2024/01/24 09:21:15;;;;;;;4.60;2.10;;;;;;;4.35;72.47;97090.75;108454;1258;95933;-77
2024/01/24 09:23:42;;;;;;;2.50;1.70;;;;;;;4.35;72.61;97080.35;108403;1256;103435;-78
2024/01/24 09:26:10;;;;;;;3.20;2.00;;;;;;;4.33;72.63;97085.80;108431;1256;100324;-78
2024/01/24 09:28:38;;;;;;;2.00;1.50;;;;;;;4.34;72.65;97082.36;108395;1256;100100;-78
2024/01/24 09:31:05;;;;;;;2.30;1.50;;;;;;;4.35;72.77;97085.00;108422;1257;96529;-78
2024/01/24 09:33:33;;;;;;;3.30;2.10;;;;;;;4.33;72.88;97079.15;108452;1257;96059;-78
2024/01/24 09:36:01;;;;;;;3.50;1.90;;;;;;;4.29;72.93;97066.62;108434;1256;103817;-77
2024/01/24 09:38:29;;;;;;;4.00;2.50;;;;;;;4.27;73.05;97054.15;108445;1257;101686;-78
2024/01/24 09:41:00;;;;;;;4.40;1.60;;;;;;;4.28;73.06;97039.50;108386;1257;100070;-77
2024/01/24 09:43:35;;;;;;;3.20;1.90;;;;;;;4.30;73.09;97030.05;108380;1256;95966;-78
2024/01/24 09:46:07;;;;;;;3.60;2.00;;;;;;;4.32;73.03;97030.86;108401;1257;97555;-77
2024/01/24 09:48:35;;;;;;;3.70;2.10;;;;;;;4.37;73.05;97031.01;108447;1257;101684;-78
2024/01/24 09:51:03;;;;;;;3.40;1.80;;;;;;;4.41;73.02;97021.63;108410;1261;100099;-78
2024/01/24 09:53:33;;;;;;;4.10;2.20;;;;;;;4.45;73.04;97020.66;108391;1257;100268;-78
2024/01/24 09:56:02;;;;;;;4.80;2.90;;;;;;;4.49;73.12;97029.05;108433;1256;95615;-78
2024/01/24 09:58:29;;;;;;;4.10;2.60;;;;;;;4.54;73.12;97034.52;108431;1256;96018;-78
2024/01/24 10:00:58;;;;;;;8.80;3.80;;;;;;;4.58;73.12;97035.83;108468;1257;102484;-78
2024/01/24 10:03:28;;;;;;;5.10;2.40;;;;;;;4.60;73.23;97039.66;108441;1256;101601;-77
2024/01/24 10:05:56;;;;;;;3.80;2.00;;;;;;;4.58;73.19;97038.59;108360;1258;99853;-79
2024/01/24 10:08:24;;;;;;;7.70;3.10;;;;;;;4.57;73.75;97026.85;108350;1258;95571;-78
2024/01/24 10:10:52;;;;;;;5.20;3.10;;;;;;;4.54;73.61;97023.84;108350;1257;95992;-78
2024/01/24 10:13:19;;;;;;;6.10;3.10;;;;;;;4.51;73.92;97017.07;108340;1257;102173;-80
2024/01/24 10:15:47;;;;;;;10.40;4.90;;;;;;;4.50;74.15;97014.34;108386;1256;100671;-80
2024/01/24 10:18:15;;;;;;;8.30;4.50;;;;;;;4.49;74.21;97003.15;108363;1257;101700;-79
2024/01/24 10:20:43;;;;;;;3.50;2.10;;;;;;;4.48;74.18;97007.04;108423;1256;95911;-79
2024/01/24 10:23:11;;;;;;;3.00;1.50;;;;;;;4.47;74.26;97002.80;108485;1257;96024;-80
2024/01/24 10:25:42;;;;;;;3.20;1.50;;;;;;;4.48;74.57;97007.81;108435;1257;102178;-79
2024/01/24 10:28:14;;;;;;;3.20;1.40;;;;;;;4.50;74.72;96996.09;108435;1257;100101;-79
2024/01/24 10:30:42;;;;;;;5.00;2.20;;;;;;;4.51;74.82;96999.16;108395;1257;100220;-79
2024/01/24 10:33:13;;;;;;;6.20;2.70;;;;;;;4.51;74.91;96995.98;108348;1257;96025;-80
2024/01/24 10:35:41;;;;;;;4.00;2.30;;;;;;;4.52;75.03;96991.03;108482;1256;95933;-79
2024/01/24 10:38:13;;;;;;;5.30;2.70;;;;;;;4.54;75.30;97002.38;108406;1257;104105;-79
2024/01/24 10:40:41;;;;;;;12.90;6.40;;;;;;;4.49;75.51;97001.22;108413;1257;100562;-80
2024/01/24 10:43:12;;;;;;;6.50;3.40;;;;;;;4.44;75.69;96992.77;108420;1257;100171;-80
2024/01/24 10:45:49;;;;;;;3.40;1.90;;;;;;;4.41;76.07;96991.33;108390;1256;95609;-79
2024/01/24 10:48:18;;;;;;;8.70;3.80;;;;;;;4.41;76.15;96993.83;108418;1257;96036;-79
2024/01/24 10:50:46;;;;;;;4.20;1.80;;;;;;;4.41;76.29;97005.75;108420;1257;103775;-79
2024/01/24 10:53:14;;;;;;;3.30;1.80;;;;;;;4.38;76.39;97001.27;108438;1257;101655;-79
2024/01/24 10:55:42;;;;;;;2.10;1.70;;;;;;;4.37;76.26;97002.52;108340;1257;100615;-82
2024/01/24 10:58:11;;;;;;;2.70;1.80;;;;;;;4.36;76.25;96996.33;108404;1258;95611;-79
2024/01/24 11:00:39;;;;;;;2.60;1.70;;;;;;;4.32;76.87;96992.55;108437;1257;95968;-78
2024/01/24 11:03:07;;;;;;;2.70;1.80;;;;;;;4.30;77.42;96974.87;108384;1257;102693;-79
2024/01/24 11:05:44;;;;;;;3.00;1.70;;;;;;;4.27;77.76;96980.23;108418;1257;102022;-78
2024/01/24 11:08:33;;;;;;;2.60;1.50;;;;;;;4.25;77.51;96969.44;108309;1257;100165;-78
2024/01/24 11:11:09;;;;;;;4.40;2.50;;;;;;;4.26;77.87;96967.83;108304;1256;95558;-78
2024/01/24 11:13:38;;;;;;;4.70;2.30;;;;;;;4.26;78.92;96968.39;108373;1257;96517;-78
2024/01/24 11:16:31;;;;;;;4.40;2.60;;;;;;;4.24;78.66;96956.84;108376;1257;103509;-78
2024/01/24 11:19:00;;;;;;;6.90;3.30;;;;;;;4.22;78.39;96951.73;108373;1256;101565;-78
2024/01/24 11:21:29;;;;;;;5.60;3.10;;;;;;;4.24;78.45;96949.00;108420;1257;100206;-77
2024/01/24 11:23:57;;;;;;;5.00;2.70;;;;;;;4.26;78.80;96938.63;108401;1257;95687;-77
2024/01/24 11:26:25;;;;;;;3.10;1.70;;;;;;;4.27;79.00;96944.34;108440;1257;96062;-77